Time;durP1;ratioP1;P1;durP2;ratioP2;P2;SDS_P1;SDS_P2;PMS_P1;PMS_P2;Temp;Humidity;BMP_temperature;BMP_pressure;BME280_temperature;BME280_humidity;BME280_pressure;Samples;Min_cycle;Max_cycle;Signal;HPM_P1;HPM_P2
2023/08/08 00:02:15;;;;;;;1.27;1.17;;;23.30;63.40;;;;;;4858113;29;20495;-85
2023/08/08 00:04:43;;;;;;;1.37;0.90;;;23.30;63.40;;;;;;4853956;29;20473;-86
2023/08/08 00:07:12;;;;;;;1.57;1.47;;;23.30;63.40;;;;;;4854520;29;20471;-89
2023/08/08 00:09:40;;;;;;;1.13;0.90;;;23.30;63.40;;;;;;4850490;29;20476;-85
2023/08/08 00:12:08;;;;;;;1.23;1.13;;;23.30;63.40;;;;;;4847837;29;20560;-85
2023/08/08 00:14:36;;;;;;;1.03;1.03;;;23.30;63.40;;;;;;4855564;29;20532;-85
2023/08/08 00:17:06;;;;;;;1.03;1.00;;;23.30;63.40;;;;;;4853962;29;20534;-85
2023/08/08 00:19:35;;;;;;;0.90;0.90;;;23.30;63.40;;;;;;4855525;29;20475;-85
2023/08/08 00:22:04;;;;;;;0.80;0.80;;;23.30;63.40;;;;;;4855897;29;20460;-86
2023/08/08 00:24:32;;;;;;;1.03;1.03;;;23.30;63.40;;;;;;4852852;29;20846;-87
2023/08/08 00:27:00;;;;;;;0.87;0.80;;;23.30;63.40;;;;;;4852938;29;20500;-85
2023/08/08 00:29:28;;;;;;;1.90;1.80;;;23.30;63.40;;;;;;4851035;29;22237;-86
2023/08/08 00:31:56;;;;;;;1.17;0.90;;;23.30;63.40;;;;;;4857097;29;20500;-86
2023/08/08 00:34:26;;;;;;;1.10;1.10;;;23.30;63.40;;;;;;4854986;29;21040;-85
2023/08/08 00:36:55;;;;;;;1.00;0.90;;;23.30;63.50;;;;;;4848338;29;20948;-85
2023/08/08 00:39:23;;;;;;;1.20;1.10;;;23.30;63.40;;;;;;4854507;29;20474;-86
2023/08/08 00:41:51;;;;;;;1.20;1.10;;;23.30;63.40;;;;;;4849490;29;22072;-86
2023/08/08 00:44:20;;;;;;;1.20;1.10;;;23.30;63.50;;;;;;4850285;29;21367;-85
2023/08/08 00:46:48;;;;;;;1.33;1.27;;;23.30;63.50;;;;;;4857309;29;20488;-85
2023/08/08 00:49:16;;;;;;;1.40;1.30;;;23.30;63.50;;;;;;4850506;29;20464;-85
2023/08/08 00:51:47;;;;;;;0.83;0.83;;;23.30;63.40;;;;;;4862500;29;20477;-87
2023/08/08 00:54:17;;;;;;;1.20;1.10;;;23.30;63.50;;;;;;4852037;29;20485;-86
2023/08/08 00:56:46;;;;;;;1.30;1.20;;;23.30;63.50;;;;;;4861283;29;20504;-86
2023/08/08 00:59:16;;;;;;;1.17;1.07;;;23.30;63.50;;;;;;4858583;29;20496;-86
2023/08/08 01:01:45;;;;;;;1.43;1.33;;;23.30;63.50;;;;;;4871676;29;20923;-85
2023/08/08 01:04:13;;;;;;;1.33;1.23;;;23.30;63.50;;;;;;4860351;29;20537;-87
2023/08/08 01:06:50;;;;;;;1.20;1.10;;;23.30;63.50;;;;;;4857796;29;20517;-87
2023/08/08 01:09:25;;;;;;;1.03;1.00;;;23.30;63.50;;;;;;4858913;29;20472;-86
2023/08/08 01:11:57;;;;;;;1.10;1.00;;;23.30;63.50;;;;;;4857060;29;20476;-86
2023/08/08 01:14:30;;;;;;;1.00;1.00;;;23.20;63.50;;;;;;4854287;29;20477;-86
2023/08/08 01:16:58;;;;;;;1.10;1.00;;;23.30;63.60;;;;;;4857519;29;20465;-86
2023/08/08 01:19:29;;;;;;;0.93;0.93;;;23.20;63.50;;;;;;4858674;29;20525;-85
2023/08/08 01:22:03;;;;;;;0.80;0.80;;;23.20;63.60;;;;;;4861189;29;20448;-87
2023/08/08 01:24:36;;;;;;;0.80;0.80;;;23.20;63.60;;;;;;4856437;29;21239;-86
2023/08/08 01:27:06;;;;;;;1.30;1.20;;;23.20;63.60;;;;;;4860945;29;20566;-86
2023/08/08 01:29:35;;;;;;;1.03;1.00;;;23.20;63.60;;;;;;4856127;29;20477;-85
2023/08/08 01:32:04;;;;;;;0.90;0.90;;;23.20;63.50;;;;;;4860344;29;20876;-86
2023/08/08 01:34:32;;;;;;;1.00;1.00;;;23.20;63.60;;;;;;4859048;29;20482;-86
2023/08/08 01:37:05;;;;;;;0.97;0.97;;;23.20;63.60;;;;;;4859876;29;20538;-86
2023/08/08 01:39:35;;;;;;;1.10;1.10;;;23.20;63.70;;;;;;4850759;29;20460;-86
2023/08/08 01:42:06;;;;;;;1.13;1.10;;;23.20;63.70;;;;;;4857716;29;20649;-86
2023/08/08 01:44:34;;;;;;;0.90;0.90;;;23.20;63.60;;;;;;4861443;29;20452;-86
2023/08/08 01:47:03;;;;;;;0.93;0.93;;;23.20;63.70;;;;;;4855726;29;20456;-86
2023/08/08 01:49:32;;;;;;;1.00;1.00;;;23.20;63.60;;;;;;4860285;29;20977;-85
2023/08/08 01:52:00;;;;;;;1.13;0.90;;;23.20;63.70;;;;;;4861792;29;21355;-85
2023/08/08 01:54:29;;;;;;;0.80;0.80;;;23.20;63.70;;;;;;4861086;29;20997;-85
2023/08/08 01:56:58;;;;;;;1.33;1.20;;;23.20;63.70;;;;;;4854105;29;20470;-86
2023/08/08 01:59:26;;;;;;;1.00;0.90;;;23.20;63.70;;;;;;4857144;29;20834;-86
2023/08/08 02:01:54;;;;;;;1.30;1.20;;;23.20;63.70;;;;;;4855133;29;20588;-86
2023/08/08 02:04:23;;;;;;;1.20;1.10;;;23.20;63.70;;;;;;4854967;29;20512;-85
2023/08/08 02:06:52;;;;;;;0.87;0.87;;;23.20;63.70;;;;;;4861120;29;20464;-85
2023/08/08 02:09:20;;;;;;;0.80;0.80;;;23.20;63.70;;;;;;4854704;29;20464;-86
2023/08/08 02:11:49;;;;;;;0.90;0.90;;;23.20;63.70;;;;;;4865790;29;20508;-86
2023/08/08 02:14:18;;;;;;;0.80;0.80;;;23.20;63.80;;;;;;4847174;29;20457;-85
2023/08/08 02:16:46;;;;;;;1.03;0.67;;;23.20;63.80;;;;;;4859136;29;20476;-86
2023/08/08 02:19:15;;;;;;;0.73;0.73;;;23.20;63.80;;;;;;4858496;29;20476;-85
2023/08/08 02:21:43;;;;;;;1.30;1.00;;;23.20;63.80;;;;;;4854584;29;20821;-85
2023/08/08 02:24:11;;;;;;;0.90;0.90;;;23.20;63.80;;;;;;4860377;29;20469;-85
2023/08/08 02:26:39;;;;;;;0.90;0.90;;;23.20;63.70;;;;;;4860997;29;20476;-85
2023/08/08 02:29:09;;;;;;;1.00;1.00;;;23.20;63.70;;;;;;4856425;29;20889;-85
2023/08/08 02:31:38;;;;;;;1.50;1.10;;;23.20;63.80;;;;;;4855070;29;20477;-85
2023/08/08 02:34:07;;;;;;;1.17;0.97;;;23.20;63.80;;;;;;4848272;29;20500;-85
2023/08/08 02:36:35;;;;;;;1.20;1.10;;;23.20;63.80;;;;;;4856577;29;20536;-86
2023/08/08 02:39:03;;;;;;;1.10;1.00;;;23.20;63.80;;;;;;4856497;29;21029;-87
2023/08/08 02:41:32;;;;;;;1.20;1.00;;;23.20;63.80;;;;;;4867929;29;20529;-86
2023/08/08 02:44:00;;;;;;;1.00;0.90;;;23.20;63.80;;;;;;4867879;29;20968;-86
2023/08/08 02:46:29;;;;;;;0.90;0.90;;;23.20;63.80;;;;;;4874424;29;20956;-87
2023/08/08 02:48:58;;;;;;;0.70;0.70;;;23.20;63.80;;;;;;4856591;29;20473;-86
2023/08/08 02:51:27;;;;;;;1.77;1.00;;;23.20;63.80;;;;;;4850148;29;20472;-85
2023/08/08 02:53:55;;;;;;;1.10;1.00;;;23.20;63.80;;;;;;4856618;29;20462;-89
2023/08/08 02:56:24;;;;;;;0.80;0.80;;;23.20;63.80;;;;;;4850274;29;20489;-86
2023/08/08 02:58:54;;;;;;;0.90;0.90;;;23.20;63.70;;;;;;4854470;29;20478;-86
2023/08/08 03:01:22;;;;;;;0.90;0.90;;;23.20;63.80;;;;;;4859483;29;21134;-86
2023/08/08 03:03:51;;;;;;;1.40;1.23;;;23.20;63.80;;;;;;4864966;29;20496;-86
2023/08/08 03:06:22;;;;;;;1.03;0.90;;;23.20;63.80;;;;;;4858486;29;20476;-87
2023/08/08 03:08:52;;;;;;;1.10;1.10;;;23.20;63.80;;;;;;4867589;29;20477;-86
2023/08/08 03:11:21;;;;;;;0.70;0.70;;;23.20;63.80;;;;;;4854127;29;20487;-86
2023/08/08 03:13:49;;;;;;;1.20;1.07;;;23.20;63.80;;;;;;4846754;29;20452;-85
2023/08/08 03:16:18;;;;;;;0.80;0.80;;;23.20;63.90;;;;;;4858873;29;20488;-85
2023/08/08 03:18:47;;;;;;;0.90;0.90;;;23.20;63.80;;;;;;4865915;29;20507;-86
2023/08/08 03:21:16;;;;;;;1.03;1.03;;;23.20;63.80;;;;;;4858532;29;20998;-85
2023/08/08 03:23:46;;;;;;;0.97;0.97;;;23.20;63.80;;;;;;4856096;29;20460;-85
2023/08/08 03:26:14;;;;;;;1.00;0.90;;;23.20;63.90;;;;;;4859133;29;20488;-90
2023/08/08 03:28:44;;;;;;;1.00;1.00;;;23.20;63.90;;;;;;4853987;29;20469;-87
2023/08/08 03:31:12;;;;;;;1.30;1.20;;;23.20;63.90;;;;;;4858712;29;20465;-86
2023/08/08 03:33:42;;;;;;;1.30;0.90;;;23.20;63.90;;;;;;4858513;29;20843;-86
2023/08/08 03:36:12;;;;;;;0.97;0.97;;;23.20;63.90;;;;;;4854465;29;20475;-86
2023/08/08 03:38:40;;;;;;;1.03;1.03;;;23.20;63.80;;;;;;4864911;29;20460;-87
2023/08/08 03:41:10;;;;;;;0.80;0.80;;;23.20;63.90;;;;;;4851758;29;20566;-86
2023/08/08 03:43:38;;;;;;;0.80;0.80;;;23.20;63.90;;;;;;4856581;29;20468;-86
2023/08/08 03:46:06;;;;;;;0.93;0.93;;;23.20;63.90;;;;;;4859814;29;20476;-85
2023/08/08 03:48:35;;;;;;;1.03;1.00;;;23.20;63.90;;;;;;4866304;29;20521;-85
2023/08/08 03:51:03;;;;;;;0.80;0.80;;;23.20;63.90;;;;;;4853299;29;20602;-86
2023/08/08 03:53:31;;;;;;;0.80;0.80;;;23.20;63.90;;;;;;4857451;29;21037;-85
2023/08/08 03:56:00;;;;;;;1.33;1.10;;;23.20;63.90;;;;;;4859789;29;20824;-85
2023/08/08 03:58:29;;;;;;;0.90;0.90;;;23.20;63.80;;;;;;4850059;29;20934;-85
2023/08/08 04:00:57;;;;;;;1.10;1.00;;;23.10;63.90;;;;;;4856752;29;21192;-87
2023/08/08 04:03:26;;;;;;;1.10;1.00;;;23.10;63.90;;;;;;4855989;29;20552;-85
2023/08/08 04:05:54;;;;;;;0.90;0.90;;;23.10;63.90;;;;;;4858144;29;20464;-86
2023/08/08 04:08:22;;;;;;;1.00;0.90;;;23.10;63.90;;;;;;4852542;29;20567;-87
2023/08/08 04:10:50;;;;;;;0.90;0.90;;;23.10;64.00;;;;;;4863216;29;20470;-86
2023/08/08 04:13:18;;;;;;;1.17;1.03;;;23.10;63.90;;;;;;4857628;29;20498;-85
2023/08/08 04:15:48;;;;;;;1.00;0.90;;;23.10;64.00;;;;;;4858067;29;20477;-85
2023/08/08 04:18:16;;;;;;;1.10;0.90;;;23.20;63.90;;;;;;4850759;29;20552;-85
2023/08/08 04:20:47;;;;;;;0.70;0.70;;;23.20;64.00;;;;;;4857408;29;20491;-86
2023/08/08 04:23:15;;;;;;;0.87;0.80;;;23.20;63.90;;;;;;4856218;29;20831;-85
2023/08/08 04:25:43;;;;;;;1.07;0.97;;;23.20;63.90;;;;;;4853321;29;21315;-86
2023/08/08 04:28:11;;;;;;;0.90;0.90;;;23.20;63.90;;;;;;4850007;29;20469;-86
2023/08/08 04:30:40;;;;;;;1.00;1.00;;;23.20;63.90;;;;;;4854785;29;20998;-85
2023/08/08 04:33:09;;;;;;;1.47;1.00;;;23.20;64.00;;;;;;4851604;29;20473;-85
2023/08/08 04:35:37;;;;;;;0.93;0.90;;;23.20;64.00;;;;;;4857898;29;20482;-86
2023/08/08 04:38:06;;;;;;;0.80;0.80;;;23.20;64.00;;;;;;4858227;29;20540;-86
2023/08/08 04:40:35;;;;;;;0.70;0.70;;;23.20;64.00;;;;;;4854811;29;20485;-85
2023/08/08 04:43:05;;;;;;;1.00;0.90;;;23.20;63.90;;;;;;4852172;29;20512;-85
2023/08/08 04:45:33;;;;;;;1.10;0.90;;;23.20;63.90;;;;;;4859704;29;20455;-86
2023/08/08 04:48:01;;;;;;;1.07;1.07;;;23.20;64.00;;;;;;4854418;29;20455;-85
2023/08/08 04:50:31;;;;;;;0.70;0.70;;;23.10;63.90;;;;;;4857762;29;20472;-86
2023/08/08 04:52:59;;;;;;;1.20;1.03;;;23.10;63.90;;;;;;4852813;29;20705;-85
2023/08/08 04:55:27;;;;;;;1.00;1.00;;;23.20;64.00;;;;;;4859109;29;20543;-86
2023/08/08 04:57:56;;;;;;;1.30;1.20;;;23.10;64.00;;;;;;4848938;29;20529;-86
2023/08/08 05:00:27;;;;;;;0.90;0.90;;;23.10;64.00;;;;;;4854564;29;20513;-87
2023/08/08 05:02:56;;;;;;;0.90;0.90;;;23.10;64.00;;;;;;4856008;29;20456;-86
2023/08/08 05:05:24;;;;;;;1.10;0.93;;;23.10;64.00;;;;;;4857639;29;20556;-86
2023/08/08 05:07:53;;;;;;;1.30;1.30;;;23.10;64.00;;;;;;4850038;29;20572;-86
2023/08/08 05:10:22;;;;;;;1.30;0.90;;;23.10;64.00;;;;;;4855944;29;20472;-85
2023/08/08 05:12:50;;;;;;;1.07;0.87;;;23.20;63.90;;;;;;4853871;29;20476;-86
2023/08/08 05:15:19;;;;;;;0.90;0.90;;;23.10;64.00;;;;;;4856374;29;20492;-85
2023/08/08 05:17:47;;;;;;;0.90;0.90;;;23.10;64.00;;;;;;4858163;29;20488;-85
2023/08/08 05:20:16;;;;;;;1.00;0.90;;;23.10;64.00;;;;;;4858741;29;20461;-87
2023/08/08 05:22:44;;;;;;;0.70;0.70;;;23.10;64.00;;;;;;4857468;29;20603;-86
2023/08/08 05:25:14;;;;;;;1.00;1.00;;;23.10;64.00;;;;;;4850954;29;20490;-86
2023/08/08 05:27:42;;;;;;;1.20;1.10;;;23.10;64.00;;;;;;4851386;29;20471;-86
2023/08/08 05:30:11;;;;;;;1.80;0.80;;;23.10;64.00;;;;;;4854749;29;20508;-87
2023/08/08 05:32:39;;;;;;;0.80;0.80;;;23.10;64.00;;;;;;4856534;29;20480;-86
2023/08/08 05:35:08;;;;;;;0.93;0.83;;;23.10;64.00;;;;;;4852559;29;20477;-86
2023/08/08 05:37:36;;;;;;;0.80;0.80;;;23.10;64.00;;;;;;4842892;29;20490;-89
2023/08/08 05:40:06;;;;;;;0.70;0.70;;;23.10;64.00;;;;;;4853000;29;20460;-86
2023/08/08 05:42:36;;;;;;;1.43;1.10;;;23.10;64.00;;;;;;4855834;29;20982;-86
2023/08/08 05:45:04;;;;;;;0.90;0.87;;;23.10;64.10;;;;;;4856983;29;20472;-85
2023/08/08 05:47:33;;;;;;;0.97;0.93;;;23.10;64.10;;;;;;4858342;29;20469;-86
2023/08/08 05:50:02;;;;;;;0.80;0.80;;;23.10;64.10;;;;;;4861758;29;20452;-86
2023/08/08 05:52:30;;;;;;;0.80;0.80;;;23.10;64.10;;;;;;4861110;29;20536;-85
2023/08/08 05:54:59;;;;;;;0.83;0.83;;;23.10;64.00;;;;;;4852534;29;20527;-86
2023/08/08 05:57:27;;;;;;;0.83;0.80;;;23.10;64.00;;;;;;4861032;29;20884;-87
2023/08/08 05:59:57;;;;;;;1.17;0.90;;;23.10;64.00;;;;;;4853689;29;20466;-85
2023/08/08 06:02:28;;;;;;;0.90;0.90;;;23.10;64.00;;;;;;4858945;29;20456;-88
2023/08/08 06:04:56;;;;;;;0.80;0.80;;;23.10;64.00;;;;;;4857157;29;20842;-86
2023/08/08 06:07:24;;;;;;;0.87;0.80;;;23.10;64.00;;;;;;4855599;29;20468;-86
2023/08/08 06:09:53;;;;;;;1.50;1.10;;;23.20;64.00;;;;;;4855636;29;20498;-85
2023/08/08 06:12:21;;;;;;;0.80;0.80;;;23.20;63.90;;;;;;4854587;29;20473;-86
2023/08/08 06:14:49;;;;;;;0.70;0.70;;;23.20;63.90;;;;;;4859042;29;20525;-86
2023/08/08 06:17:19;;;;;;;0.80;0.80;;;23.20;63.90;;;;;;4852634;29;20571;-85
2023/08/08 06:19:47;;;;;;;0.90;0.90;;;23.20;63.80;;;;;;4854482;29;20464;-86
2023/08/08 06:22:15;;;;;;;0.80;0.80;;;23.20;63.80;;;;;;4857513;29;20492;-86
2023/08/08 06:24:43;;;;;;;2.10;1.10;;;23.20;63.80;;;;;;4874999;29;20500;-86
2023/08/08 06:27:13;;;;;;;1.00;1.00;;;23.20;63.80;;;;;;4859084;29;20579;-88
2023/08/08 06:29:42;;;;;;;1.93;1.10;;;23.20;63.80;;;;;;4856133;29;20483;-86
2023/08/08 06:32:10;;;;;;;0.90;0.90;;;23.20;63.90;;;;;;4856452;29;20486;-87
2023/08/08 06:34:40;;;;;;;0.97;0.93;;;23.10;63.90;;;;;;4857872;29;20492;-87
2023/08/08 06:37:08;;;;;;;1.03;0.97;;;23.10;63.90;;;;;;4856106;29;20528;-86
2023/08/08 06:39:38;;;;;;;1.03;1.03;;;23.10;63.90;;;;;;4859500;29;20480;-86
2023/08/08 06:42:06;;;;;;;1.87;1.07;;;23.10;63.80;;;;;;4860967;29;20463;-86
2023/08/08 06:44:47;;;;;;;1.13;0.80;;;23.10;63.90;;;;;;4866296;29;20466;-86
2023/08/08 06:47:15;;;;;;;1.63;1.53;;;23.20;63.80;;;;;;4860199;29;20945;-86
2023/08/08 06:49:45;;;;;;;1.00;0.90;;;23.20;63.80;;;;;;4859902;29;20453;-86
2023/08/08 06:52:13;;;;;;;1.13;0.70;;;23.20;63.80;;;;;;4858512;29;20511;-86
2023/08/08 06:54:41;;;;;;;0.90;0.90;;;23.20;63.80;;;;;;4858118;29;20473;-87
2023/08/08 06:57:09;;;;;;;1.20;1.10;;;23.20;63.80;;;;;;4860378;29;20472;-86
2023/08/08 06:59:38;;;;;;;1.03;0.80;;;23.20;63.90;;;;;;4851956;29;20471;-86
2023/08/08 07:02:06;;;;;;;1.53;0.80;;;23.20;63.80;;;;;;4854113;29;20497;-86
2023/08/08 07:04:35;;;;;;;1.60;1.03;;;23.20;63.80;;;;;;4858013;29;20548;-86
2023/08/08 07:07:05;;;;;;;0.70;0.70;;;23.10;63.90;;;;;;4859886;29;20456;-86
2023/08/08 07:09:34;;;;;;;1.07;0.93;;;23.10;63.90;;;;;;4859208;29;20482;-86
2023/08/08 07:12:05;;;;;;;1.50;0.87;;;23.20;63.90;;;;;;4852121;29;20985;-86
2023/08/08 07:14:33;;;;;;;0.70;0.60;;;23.20;63.90;;;;;;4856573;29;20494;-86
2023/08/08 07:17:03;;;;;;;1.00;1.00;;;23.10;63.90;;;;;;4857423;29;20524;-86
2023/08/08 07:19:32;;;;;;;0.70;0.70;;;23.20;63.80;;;;;;4854342;29;20472;-86
2023/08/08 07:22:00;;;;;;;2.33;1.10;;;23.20;63.70;;;;;;4853063;29;20587;-85
2023/08/08 07:24:30;;;;;;;0.90;0.90;;;23.20;63.80;;;;;;4852059;29;20634;-85
2023/08/08 07:27:00;;;;;;;1.30;1.00;;;23.20;63.80;;;;;;4860984;29;21426;-85
2023/08/08 07:29:28;;;;;;;0.87;0.87;;;23.30;63.80;;;;;;4862283;29;20469;-85
2023/08/08 07:31:56;;;;;;;0.90;0.90;;;23.30;63.70;;;;;;4857258;29;20468;-86
2023/08/08 07:34:24;;;;;;;1.20;1.10;;;23.30;63.70;;;;;;4856205;29;20485;-86
2023/08/08 07:36:53;;;;;;;0.97;0.97;;;23.30;63.60;;;;;;4853084;29;20519;-86
2023/08/08 07:39:21;;;;;;;1.73;1.03;;;23.30;63.50;;;;;;4855242;29;20529;-85
2023/08/08 07:41:50;;;;;;;0.87;0.83;;;23.40;63.40;;;;;;4855273;29;20470;-85
2023/08/08 07:44:18;;;;;;;0.83;0.83;;;23.40;63.40;;;;;;4852497;29;20462;-86
2023/08/08 07:46:47;;;;;;;0.97;0.97;;;23.40;63.40;;;;;;4855365;29;20992;-85
2023/08/08 07:49:15;;;;;;;0.87;0.87;;;23.40;63.30;;;;;;4854582;29;21007;-84
2023/08/08 07:51:43;;;;;;;2.00;1.00;;;23.40;63.40;;;;;;4847261;29;20511;-83
2023/08/08 07:54:11;;;;;;;1.47;1.37;;;23.40;63.70;;;;;;4852325;29;20464;-82
2023/08/08 07:56:39;;;;;;;2.00;1.13;;;23.40;64.00;;;;;;4856175;29;20964;-83
2023/08/08 07:59:09;;;;;;;1.13;0.90;;;23.40;64.10;;;;;;4855747;29;20508;-83
2023/08/08 08:01:38;;;;;;;3.97;1.30;;;23.40;64.20;;;;;;4856797;29;20536;-82
2023/08/08 08:04:06;;;;;;;1.33;1.00;;;23.40;64.10;;;;;;4856667;29;20483;-83
2023/08/08 08:06:34;;;;;;;1.83;1.43;;;23.50;64.20;;;;;;4858441;29;20560;-82
2023/08/08 08:09:03;;;;;;;1.07;0.97;;;23.50;64.20;;;;;;4857947;29;20918;-86
2023/08/08 08:11:31;;;;;;;2.40;1.17;;;23.50;64.20;;;;;;4859297;29;20468;-83
2023/08/08 08:13:59;;;;;;;4.07;1.73;;;23.50;64.20;;;;;;4854357;29;20549;-83
2023/08/08 08:16:29;;;;;;;3.20;1.13;;;23.50;64.20;;;;;;4854741;29;20523;-83
2023/08/08 08:18:57;;;;;;;3.47;1.10;;;23.50;64.30;;;;;;4855792;29;20945;-84
2023/08/08 08:21:25;;;;;;;2.30;1.10;;;23.50;64.70;;;;;;4858994;29;20474;-82
2023/08/08 08:23:54;;;;;;;3.43;1.23;;;23.50;65.10;;;;;;4857218;29;20469;-83
2023/08/08 08:26:22;;;;;;;4.70;2.03;;;23.60;65.50;;;;;;4856093;29;21002;-84
2023/08/08 08:28:50;;;;;;;6.60;1.97;;;23.60;65.70;;;;;;4857580;29;20473;-87
2023/08/08 08:31:18;;;;;;;2.57;1.60;;;23.60;65.90;;;;;;4854979;29;20472;-87
2023/08/08 08:33:48;;;;;;;7.40;2.00;;;23.60;66.00;;;;;;4851779;29;20954;-85
2023/08/08 08:36:16;;;;;;;8.90;1.97;;;23.70;65.90;;;;;;4857971;29;20492;-84
2023/08/08 08:38:44;;;;;;;6.97;1.50;;;23.70;65.90;;;;;;4852016;29;20544;-83
2023/08/08 08:41:18;;;;;;;3.20;1.50;;;23.70;65.80;;;;;;4857730;29;20970;-84
2023/08/08 08:43:47;;;;;;;1.70;1.50;;;23.70;65.80;;;;;;4857946;29;20467;-83
2023/08/08 08:46:21;;;;;;;4.37;1.37;;;23.80;65.60;;;;;;4854170;29;21037;-84
2023/08/08 08:48:52;;;;;;;4.70;1.80;;;23.80;65.40;;;;;;4852244;29;20459;-84
2023/08/08 08:51:20;;;;;;;3.17;1.73;;;23.80;65.40;;;;;;4852776;29;20472;-86
2023/08/08 08:53:49;;;;;;;4.80;2.00;;;23.90;65.40;;;;;;4856492;29;20449;-83
2023/08/08 08:56:18;;;;;;;1.80;1.50;;;23.90;65.40;;;;;;4857803;29;20481;-84
2023/08/08 08:58:46;;;;;;;5.00;1.83;;;23.90;65.40;;;;;;4848819;29;20487;-86
2023/08/08 09:01:15;;;;;;;2.17;1.60;;;23.90;65.20;;;;;;4853937;29;20900;-86
2023/08/08 09:03:45;;;;;;;3.53;1.73;;;23.90;65.20;;;;;;4856462;29;20559;-88
2023/08/08 09:06:16;;;;;;;2.80;1.47;;;24.00;65.10;;;;;;4854295;29;20718;-86
2023/08/08 09:08:46;;;;;;;3.00;1.43;;;24.00;65.10;;;;;;4854553;29;20468;-88
2023/08/08 09:11:15;;;;;;;2.80;1.60;;;24.00;65.20;;;;;;4854685;29;20461;-85
2023/08/08 09:13:43;;;;;;;2.10;1.70;;;24.00;65.20;;;;;;4856276;29;21133;-87
2023/08/08 09:16:13;;;;;;;5.07;2.33;;;24.00;65.10;;;;;;4859020;29;20524;-87
2023/08/08 09:18:42;;;;;;;3.80;2.47;;;24.10;65.20;;;;;;4855589;29;20480;-87
2023/08/08 09:21:10;;;;;;;2.57;1.40;;;24.10;65.10;;;;;;4857502;29;20507;-87
2023/08/08 09:23:40;;;;;;;2.47;1.77;;;24.10;65.10;;;;;;4854511;29;20977;-86
2023/08/08 09:26:13;;;;;;;4.20;2.50;;;24.10;65.10;;;;;;4857472;29;20485;-85
2023/08/08 09:28:42;;;;;;;2.30;1.80;;;24.10;65.20;;;;;;4854842;29;20468;-86
2023/08/08 09:31:10;;;;;;;2.50;1.60;;;24.10;65.10;;;;;;4858868;29;20453;-85
2023/08/08 09:33:40;;;;;;;3.73;2.10;;;24.10;65.10;;;;;;4860171;29;20473;-85
2023/08/08 09:36:08;;;;;;;1.30;1.20;;;24.10;65.10;;;;;;4857996;29;20461;-89
2023/08/08 09:38:36;;;;;;;2.50;1.47;;;24.10;65.20;;;;;;4859692;29;20558;-84
2023/08/08 09:41:06;;;;;;;1.67;1.30;;;24.10;65.20;;;;;;4856838;29;20529;-85
2023/08/08 09:43:34;;;;;;;5.03;1.67;;;24.10;65.20;;;;;;4858784;29;20483;-84
2023/08/08 09:46:03;;;;;;;2.97;1.57;;;24.10;65.30;;;;;;4860490;29;20480;-88
2023/08/08 09:48:32;;;;;;;3.37;1.90;;;24.10;65.20;;;;;;4861162;29;20484;-86
2023/08/08 09:51:00;;;;;;;4.20;1.53;;;24.20;65.20;;;;;;4853279;29;20889;-84
2023/08/08 09:53:29;;;;;;;1.33;1.03;;;24.20;65.30;;;;;;4857281;29;20478;-85
2023/08/08 09:55:58;;;;;;;3.07;1.33;;;24.20;65.20;;;;;;4853042;29;20492;-84
2023/08/08 09:58:27;;;;;;;2.40;1.37;;;24.20;65.20;;;;;;4856753;29;21155;-84
2023/08/08 10:00:57;;;;;;;2.67;1.33;;;24.20;65.20;;;;;;4859799;29;20475;-85
2023/08/08 10:03:26;;;;;;;2.43;1.40;;;24.20;65.10;;;;;;4856783;29;20973;-89
2023/08/08 10:05:54;;;;;;;3.00;1.40;;;24.20;65.00;;;;;;4858148;29;20545;-84
2023/08/08 10:08:23;;;;;;;1.90;1.43;;;24.20;64.90;;;;;;4856355;29;20469;-84
2023/08/08 10:10:52;;;;;;;1.73;1.13;;;24.30;64.70;;;;;;4851060;29;20465;-84
2023/08/08 10:13:21;;;;;;;3.63;1.60;;;24.30;64.80;;;;;;4856824;29;20530;-83
2023/08/08 10:15:51;;;;;;;2.57;1.50;;;24.30;64.60;;;;;;4850351;29;20511;-84
2023/08/08 10:18:22;;;;;;;2.70;1.30;;;24.30;64.70;;;;;;4854625;29;20564;-83
2023/08/08 10:20:53;;;;;;;2.80;1.30;;;24.40;64.30;;;;;;4853714;29;20534;-84
2023/08/08 10:23:21;;;;;;;1.63;1.53;;;24.40;64.20;;;;;;4849940;29;20472;-87
2023/08/08 10:25:52;;;;;;;1.83;1.20;;;24.40;64.10;;;;;;4857859;29;21051;-84
2023/08/08 10:28:22;;;;;;;1.10;1.00;;;24.40;64.20;;;;;;4851985;29;20461;-86
2023/08/08 10:30:59;;;;;;;1.63;1.03;;;24.40;64.00;;;;;;4864382;29;20549;-85
2023/08/08 10:33:29;;;;;;;3.33;1.57;;;24.40;64.10;;;;;;4849794;29;20535;-84
2023/08/08 10:36:02;;;;;;;1.10;1.00;;;24.40;63.90;;;;;;4852731;29;20564;-84
2023/08/08 10:38:41;;;;;;;1.83;1.10;;;24.40;64.00;;;;;;4858125;29;20468;-85
2023/08/08 10:41:15;;;;;;;1.93;1.00;;;24.40;64.10;;;;;;4857610;29;20472;-84
2023/08/08 10:43:52;;;;;;;1.03;0.93;;;24.40;63.90;;;;;;4854372;29;21059;-84
2023/08/08 10:46:29;;;;;;;1.70;1.20;;;24.40;63.90;;;;;;4854920;29;20472;-86
2023/08/08 10:49:00;;;;;;;2.17;1.43;;;24.40;63.70;;;;;;4859396;29;20999;-84
2023/08/08 10:51:34;;;;;;;1.00;0.90;;;24.40;63.70;;;;;;4854128;29;20487;-84
2023/08/08 10:54:05;;;;;;;1.67;1.30;;;24.40;63.90;;;;;;4851592;29;20465;-85
2023/08/08 10:56:36;;;;;;;0.90;0.80;;;24.40;63.80;;;;;;4855875;29;20996;-85
2023/08/08 10:59:14;;;;;;;1.37;1.27;;;24.40;63.70;;;;;;4856550;29;20481;-89
2023/08/08 11:01:47;;;;;;;1.83;1.73;;;24.40;63.80;;;;;;4851834;29;20469;-85
2023/08/08 11:04:17;;;;;;;1.03;0.90;;;24.40;64.00;;;;;;4857952;29;20473;-84
2023/08/08 11:06:46;;;;;;;3.40;1.40;;;24.40;63.60;;;;;;4851065;29;20499;-85
2023/08/08 11:09:15;;;;;;;2.00;1.20;;;24.40;63.60;;;;;;4856508;29;20458;-86
2023/08/08 11:11:45;;;;;;;1.70;1.13;;;24.40;63.50;;;;;;4856156;29;20538;-84
2023/08/08 11:14:15;;;;;;;1.50;1.20;;;24.40;63.50;;;;;;4853318;29;20472;-84
2023/08/08 11:16:46;;;;;;;1.43;1.10;;;24.40;63.60;;;;;;4846047;29;20556;-85
2023/08/08 11:19:15;;;;;;;3.57;1.33;;;24.40;63.80;;;;;;4856275;29;20472;-89
2023/08/08 11:21:45;;;;;;;2.03;1.20;;;24.40;63.80;;;;;;4857194;29;20514;-86
2023/08/08 11:24:14;;;;;;;3.00;2.10;;;24.40;63.80;;;;;;4854386;29;20469;-87
2023/08/08 11:26:45;;;;;;;2.60;1.63;;;24.40;63.90;;;;;;4856252;29;20512;-85
2023/08/08 11:29:13;;;;;;;2.10;1.50;;;24.40;63.90;;;;;;4854690;29;20466;-89
2023/08/08 11:31:43;;;;;;;3.27;1.50;;;24.40;64.00;;;;;;4859899;29;20469;-84
2023/08/08 11:34:12;;;;;;;3.03;1.40;;;24.50;64.00;;;;;;4857504;29;20471;-82
2023/08/08 11:36:41;;;;;;;2.10;1.40;;;24.50;64.00;;;;;;4857958;29;20475;-84
2023/08/08 11:39:10;;;;;;;1.63;1.30;;;24.50;64.00;;;;;;4859163;29;20515;-85
2023/08/08 11:41:40;;;;;;;1.33;1.10;;;24.50;63.90;;;;;;4856504;29;20485;-84
2023/08/08 11:44:09;;;;;;;1.60;1.50;;;24.60;63.80;;;;;;4863817;29;20937;-86
2023/08/08 11:46:46;;;;;;;3.57;1.50;;;24.70;63.80;;;;;;4855100;29;20471;-88
2023/08/08 11:49:16;;;;;;;1.43;1.33;;;24.80;63.40;;;;;;4858370;29;20495;-86
2023/08/08 11:51:45;;;;;;;1.17;1.07;;;24.90;63.00;;;;;;4851835;29;23604;-85
2023/08/08 11:54:14;;;;;;;1.50;1.40;;;24.90;63.00;;;;;;4853003;29;20492;-84
2023/08/08 11:56:44;;;;;;;1.70;1.60;;;24.90;63.00;;;;;;4856575;29;20472;-84
2023/08/08 11:59:13;;;;;;;1.63;1.50;;;25.00;62.90;;;;;;4852028;29;20987;-86
2023/08/08 12:01:42;;;;;;;5.87;1.63;;;25.00;62.70;;;;;;4853224;29;20842;-85
2023/08/08 12:04:12;;;;;;;2.37;1.50;;;25.00;62.80;;;;;;4855312;29;20518;-86
2023/08/08 12:06:42;;;;;;;2.03;1.33;;;25.00;62.90;;;;;;4855846;29;20478;-84
2023/08/08 12:09:13;;;;;;;1.70;1.60;;;25.00;63.00;;;;;;4857379;29;20479;-85
2023/08/08 12:11:41;;;;;;;1.73;1.57;;;25.00;63.00;;;;;;4856888;29;20470;-86
2023/08/08 12:14:10;;;;;;;2.60;1.30;;;25.00;63.00;;;;;;4857808;29;20478;-85
2023/08/08 12:16:39;;;;;;;2.83;1.40;;;25.00;63.10;;;;;;4856958;29;20470;-84
2023/08/08 12:19:10;;;;;;;1.73;1.63;;;25.00;63.00;;;;;;4856559;29;20463;-84
2023/08/08 12:21:40;;;;;;;1.63;1.33;;;24.90;62.90;;;;;;4857243;29;20482;-85
2023/08/08 12:24:08;;;;;;;3.73;2.30;;;24.90;63.00;;;;;;4851340;29;20807;-86
2023/08/08 12:26:37;;;;;;;2.57;0.90;;;24.90;63.20;;;;;;4860056;29;20582;-86
2023/08/08 12:29:05;;;;;;;1.40;1.30;;;25.00;63.00;;;;;;4854636;29;21043;-84
2023/08/08 12:31:34;;;;;;;1.53;1.43;;;25.10;62.90;;;;;;4860424;29;20510;-84
2023/08/08 12:34:03;;;;;;;1.73;1.43;;;25.20;62.40;;;;;;4856534;29;20471;-85
2023/08/08 12:36:31;;;;;;;1.43;1.27;;;25.30;62.70;;;;;;4871473;29;20868;-85
2023/08/08 12:39:00;;;;;;;1.47;1.37;;;25.30;62.70;;;;;;4857134;29;20478;-82
2023/08/08 12:41:30;;;;;;;1.00;1.00;;;25.40;62.50;;;;;;4869056;29;20485;-83
2023/08/08 12:43:58;;;;;;;3.10;1.60;;;25.50;61.80;;;;;;4856141;29;20491;-84
2023/08/08 12:46:26;;;;;;;2.50;1.37;;;25.60;61.50;;;;;;4855246;29;22474;-89
2023/08/08 12:48:55;;;;;;;3.30;1.70;;;25.50;61.60;;;;;;4855564;29;20478;-85
2023/08/08 12:51:23;;;;;;;1.40;1.30;;;25.50;61.60;;;;;;4854281;29;20502;-85
2023/08/08 12:53:51;;;;;;;1.40;1.30;;;25.60;61.80;;;;;;4857568;29;20472;-84
2023/08/08 12:56:21;;;;;;;2.20;1.10;;;25.70;61.50;;;;;;4861657;29;20467;-85
2023/08/08 12:58:50;;;;;;;1.50;1.40;;;25.70;61.40;;;;;;4861382;29;21038;-85